createdAt,value
2019-04-28T00:00:08.850Z,98.90
2019-04-28T00:02:41.909Z,98.30
2019-04-28T00:05:15.048Z,99.20
2019-04-28T00:07:48.096Z,99.50
2019-04-28T00:10:21.267Z,99.50
2019-04-28T00:12:54.608Z,99.30
2019-04-28T00:15:28.268Z,99.30
2019-04-28T00:18:04.098Z,99.60
2019-04-28T00:20:37.909Z,99.20
2019-04-28T00:23:28.168Z,99.90
2019-04-28T00:26:18.807Z,98.60
2019-04-28T00:28:54.663Z,98.50
2019-04-28T00:31:27.507Z,99.00
2019-04-28T00:34:01.259Z,98.40
2019-04-28T00:36:35.028Z,97.70
2019-04-28T00:39:08.628Z,96.90
2019-04-28T00:41:42.053Z,97.90
2019-04-28T00:44:16.030Z,97.30
2019-04-28T00:46:51.080Z,97.60
2019-04-28T00:49:42.049Z,97.40
2019-04-28T00:52:16.238Z,97.10
2019-04-28T00:54:49.652Z,97.70
2019-04-28T00:57:23.137Z,97.90
2019-04-28T00:59:58.744Z,97.40
2019-04-28T01:02:32.344Z,97.70
2019-04-28T01:05:05.248Z,97.40
2019-04-28T01:07:38.328Z,98.80
2019-04-28T01:10:11.520Z,98.00
2019-04-28T01:12:46.604Z,96.40
2019-04-28T01:15:39.583Z,97.10
2019-04-28T01:18:23.969Z,97.80
2019-04-28T01:20:57.448Z,97.30
2019-04-28T01:23:30.650Z,97.30
2019-04-28T01:26:03.451Z,96.40
2019-04-28T01:28:36.648Z,96.70
2019-04-28T01:31:11.588Z,96.30
2019-04-28T01:33:50.176Z,96.50
2019-04-28T01:36:23.688Z,96.40
2019-04-28T01:38:56.628Z,96.20
2019-04-28T01:41:30.228Z,96.80
2019-04-28T01:44:03.226Z,97.50
2019-04-28T01:46:36.828Z,96.40
2019-04-28T01:49:10.128Z,96.20
2019-04-28T01:51:43.149Z,96.70
2019-04-28T01:54:16.070Z,97.30
2019-04-28T01:56:50.251Z,96.60
2019-04-28T01:59:23.556Z,96.50
2019-04-28T02:01:56.589Z,96.50
2019-04-28T02:04:32.106Z,95.80
2019-04-28T02:07:04.017Z,96.00
2019-04-28T02:09:36.872Z,96.30
2019-04-28T02:12:10.627Z,95.60
2019-04-28T02:14:43.829Z,96.50
2019-04-28T02:17:16.836Z,96.30
2019-04-28T02:19:51.562Z,96.90
2019-04-28T02:22:26.068Z,97.10
2019-04-28T02:25:00.295Z,97.20
2019-04-28T02:27:33.609Z,97.50
2019-04-28T02:30:10.977Z,97.70
2019-04-28T02:32:42.909Z,97.40
2019-04-28T02:35:16.629Z,97.80
2019-04-28T02:37:50.484Z,97.70
2019-04-28T02:40:23.649Z,98.20
2019-04-28T02:42:56.556Z,97.30
2019-04-28T02:45:31.597Z,97.80
2019-04-28T02:48:05.603Z,97.50
2019-04-28T02:50:50.926Z,97.70
2019-04-28T02:53:33.168Z,96.70
2019-04-28T02:56:02.877Z,97.30
2019-04-28T02:58:36.109Z,97.00
2019-04-28T03:01:18.071Z,96.70
2019-04-28T03:03:43.990Z,97.40
2019-04-28T03:06:17.007Z,96.80
2019-04-28T03:08:50.693Z,97.50
2019-04-28T03:11:24.149Z,98.40
2019-04-28T03:13:57.472Z,97.80
2019-04-28T03:16:30.586Z,98.40
2019-04-28T03:19:03.414Z,97.70
2019-04-28T03:21:36.449Z,97.50
2019-04-28T03:24:10.942Z,98.00
2019-04-28T03:26:50.717Z,97.90
2019-04-28T03:29:34.798Z,97.80
2019-04-28T03:32:30.578Z,97.70
2019-04-28T03:34:53.812Z,98.00
2019-04-28T03:37:24.464Z,97.20
2019-04-28T03:40:00.541Z,96.60
2019-04-28T03:42:33.849Z,97.10
2019-04-28T03:45:11.161Z,96.60
2019-04-28T03:47:43.590Z,97.10
2019-04-28T03:50:16.571Z,97.20
2019-04-28T03:52:51.124Z,97.70
2019-04-28T03:55:24.448Z,97.60
2019-04-28T03:57:57.758Z,98.00
2019-04-28T04:00:31.460Z,97.70
2019-04-28T04:03:04.860Z,97.50
2019-04-28T04:05:40.362Z,97.70
2019-04-28T04:08:13.088Z,98.00
2019-04-28T04:10:53.905Z,98.10
2019-04-28T04:13:34.588Z,98.60
2019-04-28T04:16:12.730Z,98.60
2019-04-28T04:18:52.991Z,98.60
2019-04-28T04:21:22.577Z,98.80
2019-04-28T04:23:55.469Z,98.50
2019-04-28T04:26:32.885Z,97.90
2019-04-28T04:29:03.027Z,98.10
2019-04-28T04:31:36.049Z,97.80
2019-04-28T04:34:10.681Z,97.90
2019-04-28T04:36:44.149Z,98.00
2019-04-28T04:39:20.496Z,97.90
2019-04-28T04:41:52.890Z,97.60
2019-04-28T04:44:25.909Z,97.50
2019-04-28T04:47:00.963Z,97.50
2019-04-28T04:49:34.211Z,96.00
2019-04-28T04:52:07.509Z,97.30
2019-04-28T04:54:40.488Z,97.80
2019-04-28T04:57:13.609Z,98.10
2019-04-28T04:59:46.592Z,97.90
2019-04-28T05:02:29.356Z,97.70
2019-04-28T05:04:57.507Z,98.20
2019-04-28T05:07:31.376Z,97.10
2019-04-28T05:10:04.508Z,97.20
2019-04-28T05:12:37.707Z,97.60
2019-04-28T05:15:10.583Z,97.60
2019-04-28T05:17:43.616Z,98.30
2019-04-28T05:20:16.576Z,98.10
2019-04-28T05:22:57.148Z,97.40
2019-04-28T05:25:32.624Z,98.10
2019-04-28T05:28:06.568Z,98.30
2019-04-28T05:30:42.850Z,98.10
2019-04-28T05:33:15.916Z,94.90
2019-04-28T05:35:50.098Z,96.70
2019-04-28T05:38:23.456Z,97.70
2019-04-28T05:40:56.835Z,97.70
2019-04-28T05:43:30.002Z,97.70
2019-04-28T05:46:03.317Z,98.00
2019-04-28T05:48:37.776Z,98.60
2019-04-28T05:51:24.176Z,98.60
2019-04-28T05:53:59.543Z,97.50
2019-04-28T05:56:34.869Z,94.90
2019-04-28T05:59:09.775Z,97.80
2019-04-28T06:02:00.663Z,96.00
2019-04-28T06:04:33.937Z,97.50
2019-04-28T06:07:09.988Z,92.70
2019-04-28T06:09:47.548Z,91.50
2019-04-28T06:12:21.161Z,93.30
2019-04-28T06:14:54.068Z,91.00
2019-04-28T06:17:26.976Z,95.60
2019-04-28T06:20:00.227Z,95.40
2019-04-28T06:22:33.969Z,96.10
2019-04-28T06:25:07.109Z,95.80
2019-04-28T06:27:40.447Z,95.50
2019-04-28T06:30:13.408Z,93.20
2019-04-28T06:32:46.308Z,91.70
2019-04-28T06:35:19.111Z,92.50
2019-04-28T06:37:52.319Z,92.60
2019-04-28T06:40:25.290Z,91.50
2019-04-28T06:42:58.270Z,89.20
2019-04-28T06:45:31.560Z,88.60
2019-04-28T06:48:04.729Z,90.80
2019-04-28T06:50:37.671Z,86.40
2019-04-28T06:53:10.671Z,90.30
2019-04-28T06:55:43.550Z,90.90
2019-04-28T06:58:16.671Z,90.10
2019-04-28T07:00:49.838Z,84.60
2019-04-28T07:03:23.508Z,87.30
2019-04-28T07:05:56.789Z,88.80
2019-04-28T07:08:29.988Z,90.50
2019-04-28T07:11:03.174Z,90.80
2019-04-28T07:13:36.395Z,91.00
2019-04-28T07:16:09.596Z,91.40
2019-04-28T07:18:42.948Z,92.10
2019-04-28T07:21:20.307Z,91.00
2019-04-28T07:23:53.110Z,92.60
2019-04-28T07:26:26.049Z,90.90
2019-04-28T07:28:59.171Z,90.10
2019-04-28T07:31:32.252Z,90.60
2019-04-28T07:34:06.071Z,89.90
2019-04-28T07:36:39.040Z,91.80
2019-04-28T07:39:11.928Z,84.20
2019-04-28T07:41:44.768Z,82.00
2019-04-28T07:44:17.709Z,87.40
2019-04-28T07:46:51.730Z,89.50
2019-04-28T07:49:24.648Z,91.10
2019-04-28T07:52:14.627Z,88.40
2019-04-28T07:54:47.748Z,86.90
2019-04-28T07:57:20.891Z,88.30
2019-04-28T07:59:54.155Z,84.40
2019-04-28T08:02:27.351Z,85.00
2019-04-28T08:05:00.408Z,89.20
2019-04-28T08:07:33.368Z,87.50
2019-04-28T08:10:06.427Z,88.00
2019-04-28T08:12:39.548Z,88.90
2019-04-28T08:15:13.111Z,88.90
2019-04-28T08:17:46.190Z,87.40
2019-04-28T08:20:19.290Z,89.70
2019-04-28T08:22:52.438Z,86.70
2019-04-28T08:25:25.858Z,83.00
2019-04-28T08:27:58.817Z,89.20
2019-04-28T08:30:32.051Z,84.20
2019-04-28T08:33:09.829Z,87.50
2019-04-28T08:35:42.849Z,85.50
2019-04-28T08:38:15.988Z,85.60
2019-04-28T08:40:49.068Z,83.30
2019-04-28T08:43:22.867Z,86.40
2019-04-28T08:45:55.808Z,86.60
2019-04-28T08:48:28.848Z,88.40
2019-04-28T08:51:01.962Z,86.10
2019-04-28T08:53:35.068Z,86.70
2019-04-28T08:56:08.396Z,84.40
2019-04-28T08:58:41.387Z,87.50
2019-04-28T09:01:14.952Z,87.70
2019-04-28T09:03:48.197Z,82.00
2019-04-28T09:06:21.295Z,81.00
2019-04-28T09:08:54.432Z,84.00
2019-04-28T09:11:28.149Z,88.10
2019-04-28T09:14:03.408Z,88.10
2019-04-28T09:16:36.408Z,89.30
2019-04-28T09:19:09.329Z,86.80
2019-04-28T09:21:42.626Z,90.00
2019-04-28T09:24:15.607Z,85.00
2019-04-28T09:26:48.976Z,84.10
2019-04-28T09:29:21.968Z,84.30
2019-04-28T09:31:54.948Z,87.20
2019-04-28T09:34:28.757Z,87.30
2019-04-28T09:37:02.889Z,84.10
2019-04-28T09:39:53.749Z,86.60
2019-04-28T09:42:29.367Z,87.80
2019-04-28T09:45:20.060Z,87.50
2019-04-28T09:47:52.955Z,83.90
2019-04-28T09:50:26.496Z,86.10
2019-04-28T09:52:59.467Z,78.30
2019-04-28T09:55:34.712Z,82.20
2019-04-28T09:58:07.748Z,87.20
2019-04-28T10:00:42.171Z,83.40
2019-04-28T10:03:15.428Z,88.20
2019-04-28T10:05:48.407Z,76.90
2019-04-28T10:08:21.516Z,80.90
2019-04-28T10:10:54.755Z,84.70
2019-04-28T10:13:27.728Z,78.50
2019-04-28T10:16:00.736Z,85.90
2019-04-28T10:18:33.908Z,81.40
2019-04-28T10:21:07.468Z,80.30
2019-04-28T10:23:40.475Z,82.10
2019-04-28T10:26:13.675Z,83.40
2019-04-28T10:28:46.836Z,85.00
2019-04-28T10:31:19.907Z,83.30
2019-04-28T10:33:54.496Z,86.40
2019-04-28T10:36:29.148Z,82.90
2019-04-28T10:39:19.988Z,85.50
2019-04-28T10:41:53.227Z,83.80
2019-04-28T10:44:27.688Z,84.60
2019-04-28T10:47:00.876Z,86.70
2019-04-28T10:49:34.268Z,89.40
2019-04-28T10:52:07.287Z,91.50
2019-04-28T10:54:40.317Z,88.90
2019-04-28T10:57:14.008Z,89.30
2019-04-28T10:59:46.972Z,90.10
2019-04-28T11:02:20.168Z,89.70
2019-04-28T11:05:08.075Z,90.20
2019-04-28T11:07:36.231Z,89.30
2019-04-28T11:10:13.731Z,88.90
2019-04-28T11:12:46.668Z,90.70
2019-04-28T11:15:24.136Z,88.70
2019-04-28T11:17:57.228Z,86.30
2019-04-28T11:20:30.748Z,85.30
2019-04-28T11:23:03.862Z,86.30
2019-04-28T11:25:36.892Z,84.90
2019-04-28T11:28:10.708Z,84.60
2019-04-28T11:30:44.428Z,82.30
2019-04-28T11:33:28.088Z,87.70
2019-04-28T11:36:01.228Z,81.90
2019-04-28T11:38:34.048Z,83.60
2019-04-28T11:41:07.837Z,85.50
2019-04-28T11:43:40.717Z,85.00
2019-04-28T11:46:16.208Z,82.70
2019-04-28T11:48:49.269Z,83.00
2019-04-28T11:51:22.192Z,84.60
2019-04-28T11:53:55.117Z,83.10
2019-04-28T11:56:40.492Z,82.10
2019-04-28T11:59:02.629Z,86.50
2019-04-28T12:01:35.688Z,87.20
2019-04-28T12:04:10.208Z,84.80
2019-04-28T12:06:43.037Z,84.70
2019-04-28T12:09:17.515Z,80.70
2019-04-28T12:11:51.988Z,84.40
2019-04-28T12:14:29.449Z,86.00
2019-04-28T12:17:02.100Z,86.40
2019-04-28T12:19:38.351Z,86.20
2019-04-28T12:22:12.756Z,86.00
2019-04-28T12:24:45.618Z,84.30
2019-04-28T12:27:19.027Z,84.10
2019-04-28T12:29:51.936Z,85.80
2019-04-28T12:32:24.789Z,84.40
2019-04-28T12:34:57.637Z,84.00
2019-04-28T12:37:30.392Z,84.50
2019-04-28T12:40:03.325Z,82.50
2019-04-28T12:42:36.147Z,82.80
2019-04-28T12:45:08.959Z,80.30
2019-04-28T12:47:41.768Z,81.00
2019-04-28T12:50:19.136Z,81.80
2019-04-28T12:52:52.042Z,79.00
2019-04-28T12:55:24.796Z,81.00
2019-04-28T12:57:57.670Z,81.70
2019-04-28T13:00:38.072Z,79.00
2019-04-28T13:03:15.719Z,80.90
2019-04-28T13:06:01.590Z,81.50
2019-04-28T13:08:27.719Z,82.60
2019-04-28T13:11:00.788Z,81.40
2019-04-28T13:13:33.688Z,82.50
2019-04-28T13:16:06.648Z,83.50
2019-04-28T13:18:39.648Z,79.00
2019-04-28T13:21:12.987Z,79.40
2019-04-28T13:23:46.267Z,80.90
2019-04-28T13:26:19.190Z,77.00
2019-04-28T13:28:52.734Z,74.90
2019-04-28T13:31:25.655Z,75.80
2019-04-28T13:34:00.232Z,76.10
2019-04-28T13:36:33.233Z,73.70
2019-04-28T13:39:07.750Z,73.50
2019-04-28T13:41:40.592Z,75.10
2019-04-28T13:44:15.221Z,76.70
2019-04-28T13:46:48.413Z,73.90
2019-04-28T13:49:22.891Z,72.30
2019-04-28T13:51:55.930Z,72.80
2019-04-28T13:54:29.035Z,71.70
2019-04-28T13:57:02.003Z,72.20
2019-04-28T13:59:35.027Z,74.40
2019-04-28T14:02:12.656Z,74.20
2019-04-28T14:04:47.160Z,74.00
2019-04-28T14:07:20.095Z,73.00
2019-04-28T14:09:52.967Z,74.60
2019-04-28T14:12:26.647Z,75.00
2019-04-28T14:15:00.115Z,70.60
2019-04-28T14:17:33.108Z,69.20
2019-04-28T14:20:06.184Z,71.40
2019-04-28T14:22:39.627Z,70.20
2019-04-28T14:25:12.712Z,68.00
2019-04-28T14:27:45.794Z,69.00
2019-04-28T14:30:18.811Z,67.20
2019-04-28T14:32:52.011Z,66.20
2019-04-28T14:35:24.912Z,69.10
2019-04-28T14:37:58.060Z,68.40
2019-04-28T14:40:31.051Z,69.10
2019-04-28T14:43:05.095Z,68.50
2019-04-28T14:45:38.247Z,65.30
2019-04-28T14:48:11.187Z,69.00
2019-04-28T14:50:44.743Z,68.60
2019-04-28T14:53:17.913Z,72.10
2019-04-28T14:55:51.126Z,70.10
2019-04-28T14:58:24.267Z,70.20
2019-04-28T15:01:01.471Z,71.50
2019-04-28T15:03:36.143Z,70.50
2019-04-28T15:06:08.931Z,67.60
2019-04-28T15:08:49.379Z,69.50
2019-04-28T15:11:23.953Z,69.60
2019-04-28T15:13:57.030Z,69.20
2019-04-28T15:16:30.315Z,70.60
2019-04-28T15:19:03.330Z,70.90
2019-04-28T15:21:37.009Z,73.50
2019-04-28T15:24:10.232Z,72.80
2019-04-28T15:26:43.771Z,72.40
2019-04-28T15:29:17.291Z,71.40
2019-04-28T15:31:50.518Z,70.10
2019-04-28T15:34:23.971Z,70.70
2019-04-28T15:37:09.258Z,71.20
2019-04-28T15:39:31.771Z,71.00
2019-04-28T15:42:04.791Z,71.20
2019-04-28T15:44:37.710Z,73.30
2019-04-28T15:47:10.718Z,70.80
2019-04-28T15:49:44.411Z,73.10
2019-04-28T15:52:17.569Z,69.00
2019-04-28T15:54:50.577Z,71.70
2019-04-28T15:57:26.273Z,70.90
2019-04-28T15:59:59.668Z,72.20
2019-04-28T16:02:32.776Z,69.60
2019-04-28T16:05:05.847Z,71.00
2019-04-28T16:07:38.910Z,70.90
2019-04-28T16:10:12.031Z,70.10
2019-04-28T16:12:45.171Z,69.50
2019-04-28T16:15:18.251Z,71.80
2019-04-28T16:17:51.551Z,71.50
2019-04-28T16:20:24.490Z,70.60
2019-04-28T16:22:57.410Z,70.70
2019-04-28T16:25:30.549Z,70.90
2019-04-28T16:28:03.350Z,70.70
2019-04-28T16:30:36.519Z,72.00
2019-04-28T16:33:09.410Z,73.60
2019-04-28T16:35:43.042Z,74.20
2019-04-28T16:38:16.053Z,73.20
2019-04-28T16:40:50.970Z,72.40
2019-04-28T16:43:24.677Z,74.10
2019-04-28T16:45:57.591Z,73.40
2019-04-28T16:48:30.692Z,75.00
2019-04-28T16:51:03.551Z,76.00
2019-04-28T16:53:36.891Z,75.30
2019-04-28T16:56:17.468Z,73.40
2019-04-28T16:58:52.336Z,75.60
2019-04-28T17:01:32.548Z,75.90
2019-04-28T17:04:06.234Z,78.00
2019-04-28T17:06:39.509Z,75.90
2019-04-28T17:09:13.987Z,77.20
2019-04-28T17:11:47.436Z,79.60
2019-04-28T17:14:20.185Z,78.20
2019-04-28T17:16:52.991Z,78.30
2019-04-28T17:19:25.795Z,76.90
2019-04-28T17:22:00.824Z,76.90
2019-04-28T17:24:33.864Z,78.70
2019-04-28T17:27:06.743Z,77.40
2019-04-28T17:29:39.834Z,78.60
2019-04-28T17:32:12.730Z,76.70
2019-04-28T17:34:45.689Z,77.50
2019-04-28T17:37:18.569Z,76.40
2019-04-28T17:39:51.494Z,78.10
2019-04-28T17:42:24.949Z,78.20
2019-04-28T17:45:00.709Z,77.80
2019-04-28T17:47:33.790Z,80.70
2019-04-28T17:50:08.069Z,81.00
2019-04-28T17:52:40.968Z,79.80
2019-04-28T17:55:14.068Z,79.60
2019-04-28T17:57:46.976Z,79.00
2019-04-28T18:00:27.573Z,78.70
2019-04-28T18:03:14.488Z,78.10
2019-04-28T18:05:51.711Z,79.50
2019-04-28T18:08:24.912Z,79.30
2019-04-28T18:10:57.787Z,79.60
2019-04-28T18:13:31.288Z,79.70
2019-04-28T18:16:21.968Z,80.60
2019-04-28T18:18:57.738Z,80.60
2019-04-28T18:21:30.878Z,80.20
2019-04-28T18:24:04.015Z,78.60
2019-04-28T18:26:39.688Z,78.00
2019-04-28T18:29:13.369Z,80.00
2019-04-28T18:31:48.769Z,79.30
2019-04-28T18:34:39.352Z,78.50
2019-04-28T18:37:30.151Z,79.20
2019-04-28T18:40:07.650Z,78.80
2019-04-28T18:42:48.320Z,78.40
2019-04-28T18:45:21.631Z,79.80
2019-04-28T18:47:54.970Z,79.90
2019-04-28T18:50:28.149Z,80.30
2019-04-28T18:53:01.095Z,80.40
2019-04-28T18:55:34.295Z,79.50
2019-04-28T18:58:07.928Z,79.70
2019-04-28T19:00:42.224Z,79.60
2019-04-28T19:03:15.356Z,79.80
2019-04-28T19:05:49.907Z,80.20
2019-04-28T19:08:28.788Z,81.50
2019-04-28T19:11:03.216Z,79.90
2019-04-28T19:13:37.880Z,82.50
2019-04-28T19:16:21.488Z,81.50
2019-04-28T19:18:56.016Z,80.70
2019-04-28T19:21:28.968Z,81.40
2019-04-28T19:24:02.056Z,80.90
2019-04-28T19:26:35.811Z,82.20
2019-04-28T19:29:08.811Z,83.80
2019-04-28T19:31:41.830Z,84.40
2019-04-28T19:34:14.951Z,84.70
2019-04-28T19:36:47.927Z,84.10
2019-04-28T19:39:21.448Z,83.50
2019-04-28T19:41:54.756Z,83.30
2019-04-28T19:44:27.790Z,84.80
2019-04-28T19:47:00.671Z,85.60
2019-04-28T19:49:33.888Z,84.00
2019-04-28T19:52:07.148Z,84.80
2019-04-28T19:54:41.729Z,85.90
2019-04-28T19:57:22.368Z,86.90
2019-04-28T20:00:12.876Z,86.20
2019-04-28T20:02:46.195Z,86.10
2019-04-28T20:05:19.270Z,87.20
2019-04-28T20:07:52.149Z,84.60
2019-04-28T20:10:25.209Z,84.50
2019-04-28T20:12:58.728Z,85.30
2019-04-28T20:15:31.788Z,85.80
2019-04-28T20:18:04.830Z,85.80
2019-04-28T20:20:38.427Z,86.30
2019-04-28T20:23:11.476Z,86.20
2019-04-28T20:25:44.796Z,85.20
2019-04-28T20:28:17.848Z,86.70
2019-04-28T20:30:50.688Z,86.00
2019-04-28T20:33:23.669Z,85.60
2019-04-28T20:36:04.128Z,85.20
2019-04-28T20:38:37.178Z,84.50
2019-04-28T20:41:14.556Z,85.10
2019-04-28T20:43:47.288Z,83.20
2019-04-28T20:46:22.229Z,83.60
2019-04-28T20:48:55.295Z,82.70
2019-04-28T20:51:28.628Z,83.60
2019-04-28T20:54:01.536Z,84.30
2019-04-28T20:56:34.789Z,83.70
2019-04-28T20:59:07.776Z,85.50
2019-04-28T21:01:41.028Z,86.30
2019-04-28T21:04:15.528Z,87.50
2019-04-28T21:06:48.788Z,88.60
2019-04-28T21:09:21.757Z,88.70
2019-04-28T21:11:54.867Z,89.30
2019-04-28T21:14:27.749Z,88.10
2019-04-28T21:17:00.707Z,88.50
2019-04-28T21:19:33.628Z,89.20
2019-04-28T21:22:06.668Z,87.20
2019-04-28T21:24:40.109Z,89.80
2019-04-28T21:27:13.194Z,89.10
2019-04-28T21:29:46.309Z,90.30
2019-04-28T21:32:19.517Z,90.60
2019-04-28T21:34:52.575Z,90.60
2019-04-28T21:37:25.668Z,91.00
2019-04-28T21:39:58.776Z,91.10
2019-04-28T21:42:49.656Z,91.40
2019-04-28T21:45:27.036Z,91.30
2019-04-28T21:47:59.969Z,91.70
2019-04-28T21:50:33.169Z,92.20
2019-04-28T21:53:07.829Z,92.30
2019-04-28T21:55:40.916Z,92.50
2019-04-28T21:58:14.132Z,92.50
2019-04-28T22:00:54.997Z,92.80
2019-04-28T22:03:28.208Z,93.00
2019-04-28T22:06:01.149Z,93.10
2019-04-28T22:08:34.235Z,93.00
2019-04-28T22:11:07.249Z,92.80
2019-04-28T22:13:40.728Z,92.70
2019-04-28T22:16:14.311Z,92.70
2019-04-28T22:18:47.395Z,92.60
2019-04-28T22:21:20.491Z,92.50
2019-04-28T22:24:11.256Z,92.10
2019-04-28T22:26:45.595Z,92.90
2019-04-28T22:29:18.775Z,92.50
2019-04-28T22:31:51.708Z,91.40
2019-04-28T22:34:25.407Z,91.00
2019-04-28T22:36:58.512Z,91.90
2019-04-28T22:39:31.515Z,92.00
2019-04-28T22:42:04.536Z,91.60
2019-04-28T22:44:37.828Z,91.90
2019-04-28T22:47:10.695Z,92.90
2019-04-28T22:49:43.978Z,92.40
2019-04-28T22:52:16.809Z,92.70
2019-04-28T22:54:49.530Z,92.90
2019-04-28T22:57:37.469Z,93.10
2019-04-28T23:00:11.878Z,93.30
2019-04-28T23:02:44.790Z,94.00
2019-04-28T23:05:17.989Z,94.00
2019-04-28T23:07:51.030Z,94.00
2019-04-28T23:10:23.988Z,94.70
2019-04-28T23:12:56.950Z,94.40
2019-04-28T23:15:30.168Z,94.50
2019-04-28T23:18:03.068Z,94.40
2019-04-28T23:20:39.642Z,94.10
2019-04-28T23:23:13.628Z,94.60
2019-04-28T23:25:46.808Z,94.30
2019-04-28T23:28:20.747Z,93.90
2019-04-28T23:30:53.848Z,94.40
2019-04-28T23:33:27.328Z,94.40
2019-04-28T23:36:00.134Z,94.40
2019-04-28T23:38:33.048Z,94.10
2019-04-28T23:41:08.418Z,94.30
2019-04-28T23:43:41.508Z,94.40
2019-04-28T23:46:14.992Z,93.50
2019-04-28T23:48:48.168Z,94.80
2019-04-28T23:51:22.711Z,94.60
2019-04-28T23:53:59.951Z,94.50
2019-04-28T23:56:32.868Z,94.10
2019-04-28T23:59:06.168Z,94.10
